Time;durP1;ratioP1;P1;durP2;ratioP2;P2;SDS_P1;SDS_P2;PMS_P1;PMS_P2;Temp;Humidity;BMP_temperature;BMP_pressure;BME280_temperature;BME280_humidity;BME280_pressure;Samples;Min_cycle;Max_cycle;Signal;HPM_P1;HPM_P2
2022/07/28 00:02:03;;;;;;;3.47;1.13;;;12.80;99.90;;;;;;5073875;28;20040;-72
2022/07/28 00:04:29;;;;;;;4.43;1.15;;;12.80;99.90;;;;;;5074101;28;20523;-72
2022/07/28 00:06:55;;;;;;;2.17;0.80;;;12.80;99.90;;;;;;5074127;28;20040;-72
2022/07/28 00:09:21;;;;;;;2.97;1.20;;;12.70;99.90;;;;;;5074040;28;20037;-72
2022/07/28 00:11:46;;;;;;;3.60;1.00;;;12.70;99.90;;;;;;5074120;28;20097;-72
2022/07/28 00:14:12;;;;;;;2.67;1.10;;;12.70;99.90;;;;;;5074193;28;20119;-72
2022/07/28 00:16:37;;;;;;;3.42;1.33;;;12.70;99.90;;;;;;5057225;28;20037;-72
2022/07/28 00:19:03;;;;;;;2.42;0.95;;;12.70;99.90;;;;;;5073787;28;20063;-72
2022/07/28 00:21:28;;;;;;;4.35;1.17;;;12.60;99.90;;;;;;5074773;28;20036;-72
2022/07/28 00:23:54;;;;;;;6.57;1.20;;;12.60;99.90;;;;;;5074017;28;20044;-72
2022/07/28 00:26:20;;;;;;;3.63;1.10;;;12.60;99.90;;;;;;5074087;28;20047;-72
2022/07/28 00:28:47;;;;;;;4.30;1.20;;;12.60;99.90;;;;;;5073722;28;20056;-71
2022/07/28 00:31:12;;;;;;;3.10;1.27;;;12.60;99.90;;;;;;5073645;28;20119;-71
2022/07/28 00:33:38;;;;;;;3.40;1.20;;;12.50;99.90;;;;;;5073663;28;20178;-71
2022/07/28 00:36:05;;;;;;;3.50;1.00;;;12.50;99.90;;;;;;5073576;28;20048;-72
2022/07/28 00:38:32;;;;;;;3.65;1.10;;;12.50;99.90;;;;;;5073804;28;20037;-72
2022/07/28 00:41:09;;;;;;;3.35;1.50;;;12.50;99.90;;;;;;5073482;28;20043;-72
2022/07/28 00:43:39;;;;;;;1.90;0.95;;;12.50;99.90;;;;;;5073770;28;20036;-72
2022/07/28 00:46:05;;;;;;;3.10;0.95;;;12.40;99.90;;;;;;5073344;28;20055;-72
2022/07/28 00:48:31;;;;;;;2.58;1.20;;;12.40;99.90;;;;;;5073604;28;20045;-72
2022/07/28 00:50:57;;;;;;;3.63;1.00;;;12.40;99.90;;;;;;5073532;28;20409;-72
2022/07/28 00:53:23;;;;;;;3.60;1.13;;;12.30;99.90;;;;;;5075044;28;20381;-72
2022/07/28 00:55:49;;;;;;;3.65;1.17;;;12.40;99.90;;;;;;5073061;28;20497;-72
2022/07/28 00:58:14;;;;;;;2.80;1.23;;;12.40;99.90;;;;;;5073424;28;20035;-72
2022/07/28 01:00:40;;;;;;;3.47;1.05;;;12.30;99.90;;;;;;5073362;28;20443;-72
2022/07/28 01:03:06;;;;;;;3.33;1.17;;;12.40;99.90;;;;;;5056416;28;20123;-72
2022/07/28 01:05:59;;;;;;;3.03;1.02;;;12.40;99.90;;;;;;5072928;28;20562;-72
2022/07/28 01:08:59;;;;;;;2.20;1.13;;;12.40;99.90;;;;;;5072993;28;20094;-72
2022/07/28 01:11:34;;;;;;;3.85;1.27;;;12.40;99.90;;;;;;5073187;28;20080;-72
2022/07/28 01:14:21;;;;;;;3.05;1.27;;;12.30;99.90;;;;;;5071815;28;20123;-72
2022/07/28 01:17:07;;;;;;;4.18;1.38;;;12.30;99.90;;;;;;5072733;28;20045;-72
2022/07/28 01:19:57;;;;;;;4.68;1.38;;;12.30;99.90;;;;;;5072693;28;20040;-72
2022/07/28 01:22:27;;;;;;;4.18;1.48;;;12.30;99.90;;;;;;5072661;28;20409;-72
2022/07/28 01:25:15;;;;;;;2.70;1.25;;;12.20;99.90;;;;;;5072539;28;20051;-72
2022/07/28 01:27:47;;;;;;;4.38;1.20;;;12.20;99.90;;;;;;5072832;28;20048;-72
2022/07/28 01:30:33;;;;;;;4.30;1.40;;;12.20;99.90;;;;;;5072555;28;20032;-72
2022/07/28 01:33:13;;;;;;;4.05;1.25;;;12.20;99.90;;;;;;5072505;28;20085;-72
2022/07/28 01:35:46;;;;;;;2.58;1.30;;;12.10;99.90;;;;;;5072326;28;20047;-72
2022/07/28 01:38:13;;;;;;;3.60;1.20;;;12.00;99.90;;;;;;5055821;28;20043;-72
2022/07/28 01:40:42;;;;;;;3.03;1.10;;;12.00;99.90;;;;;;5072359;28;20037;-72
2022/07/28 01:43:13;;;;;;;5.72;1.45;;;11.90;99.90;;;;;;5072528;28;20040;-72
2022/07/28 01:45:40;;;;;;;5.30;1.50;;;11.90;99.90;;;;;;5072918;28;20067;-72
2022/07/28 01:48:07;;;;;;;4.05;1.00;;;11.80;99.90;;;;;;5072516;28;20097;-72
2022/07/28 01:50:33;;;;;;;3.97;0.90;;;11.80;99.90;;;;;;5072159;28;20094;-72
2022/07/28 01:53:00;;;;;;;2.63;0.95;;;11.80;99.90;;;;;;5073517;28;20072;-72
2022/07/28 01:55:26;;;;;;;2.42;1.25;;;11.80;99.90;;;;;;5072004;28;20124;-72
2022/07/28 01:57:55;;;;;;;6.13;1.52;;;11.80;99.90;;;;;;5072314;28;20527;-72
2022/07/28 02:00:23;;;;;;;2.83;1.40;;;11.80;99.90;;;;;;5055653;28;20435;-72
2022/07/28 02:02:49;;;;;;;7.47;1.30;;;11.80;99.90;;;;;;5071990;28;20515;-72
2022/07/28 02:05:19;;;;;;;2.20;1.00;;;11.80;99.90;;;;;;5071902;28;20501;-72
2022/07/28 02:07:46;;;;;;;3.50;1.10;;;11.80;99.90;;;;;;5071943;28;20076;-71
2022/07/28 02:10:15;;;;;;;3.28;1.40;;;11.80;99.90;;;;;;5071964;28;20053;-71
2022/07/28 02:12:43;;;;;;;4.80;1.40;;;11.70;99.90;;;;;;5071874;28;20083;-72
2022/07/28 02:15:11;;;;;;;4.85;1.33;;;11.70;99.90;;;;;;5071709;28;20128;-72
2022/07/28 02:17:39;;;;;;;3.45;1.13;;;11.70;99.90;;;;;;5071845;28;20044;-72
2022/07/28 02:20:08;;;;;;;3.20;1.17;;;11.60;99.90;;;;;;5071729;28;20036;-72
2022/07/28 02:22:36;;;;;;;3.05;1.20;;;11.60;99.90;;;;;;5071803;28;20037;-72
2022/07/28 02:25:03;;;;;;;3.65;1.48;;;11.60;99.90;;;;;;5071396;28;20047;-72
2022/07/28 02:27:40;;;;;;;2.58;1.08;;;11.60;99.90;;;;;;5072153;28;20542;-72
2022/07/28 02:30:13;;;;;;;1.90;1.20;;;11.60;99.90;;;;;;5071744;28;20501;-72
2022/07/28 02:32:49;;;;;;;5.57;1.40;;;11.60;99.90;;;;;;5072799;28;20086;-72
2022/07/28 02:35:35;;;;;;;1.95;1.00;;;11.50;99.90;;;;;;5055073;28;20099;-72
2022/07/28 02:38:06;;;;;;;3.25;1.05;;;11.50;99.90;;;;;;5054958;28;20036;-72
2022/07/28 02:40:37;;;;;;;3.10;1.20;;;11.50;99.90;;;;;;5071929;28;20036;-72
2022/07/28 02:43:08;;;;;;;3.67;0.90;;;11.50;99.90;;;;;;5071642;28;20047;-72
2022/07/28 02:45:37;;;;;;;3.78;1.10;;;11.50;99.90;;;;;;5071557;28;20041;-72
2022/07/28 02:48:06;;;;;;;4.65;1.42;;;11.40;99.90;;;;;;5071537;28;20036;-72
2022/07/28 02:50:32;;;;;;;2.35;1.30;;;11.40;99.90;;;;;;5071759;28;20044;-72
2022/07/28 02:53:01;;;;;;;2.42;1.10;;;11.30;99.90;;;;;;5071494;28;20041;-72
2022/07/28 02:55:28;;;;;;;3.92;1.30;;;11.30;99.90;;;;;;5071360;28;20490;-72
2022/07/28 02:57:56;;;;;;;4.50;1.30;;;11.30;99.90;;;;;;5071713;28;20516;-72
2022/07/28 03:00:23;;;;;;;4.45;1.00;;;11.30;99.90;;;;;;5071412;28;20040;-72
2022/07/28 03:02:50;;;;;;;3.95;1.10;;;11.30;99.90;;;;;;5071595;28;20071;-72
2022/07/28 03:05:16;;;;;;;2.20;1.10;;;11.30;99.90;;;;;;5071324;28;20049;-72
2022/07/28 03:07:42;;;;;;;3.55;1.52;;;11.30;99.90;;;;;;5071396;28;20040;-72
2022/07/28 03:10:17;;;;;;;2.30;1.38;;;11.30;99.90;;;;;;5071346;28;20044;-72
2022/07/28 03:12:43;;;;;;;3.90;1.00;;;11.20;99.90;;;;;;5071598;28;20067;-72
2022/07/28 03:15:09;;;;;;;2.88;1.00;;;11.20;99.90;;;;;;5071152;28;20500;-72
2022/07/28 03:17:34;;;;;;;3.58;1.30;;;11.20;99.90;;;;;;5071522;28;20044;-72
2022/07/28 03:20:00;;;;;;;2.65;1.23;;;11.20;99.90;;;;;;5071371;28;20447;-72
2022/07/28 03:22:25;;;;;;;3.30;1.00;;;11.20;99.90;;;;;;5071217;28;20452;-72
2022/07/28 03:24:54;;;;;;;1.42;1.00;;;11.20;99.90;;;;;;5071396;28;20062;-72
2022/07/28 03:27:23;;;;;;;1.65;0.77;;;11.20;99.90;;;;;;5071179;28;20463;-72
2022/07/28 03:29:54;;;;;;;4.68;1.27;;;11.20;99.90;;;;;;5054442;28;20048;-72
2022/07/28 03:32:22;;;;;;;3.00;1.23;;;11.20;99.90;;;;;;5071157;28;20044;-72
2022/07/28 03:34:48;;;;;;;2.65;1.00;;;11.20;99.90;;;;;;5071075;28;20076;-72
2022/07/28 03:37:17;;;;;;;2.22;0.90;;;11.20;99.90;;;;;;5071348;28;20037;-72
2022/07/28 03:39:47;;;;;;;1.38;0.85;;;11.20;99.90;;;;;;5074727;28;20037;-72
2022/07/28 03:42:17;;;;;;;2.35;0.95;;;11.20;99.90;;;;;;5074663;28;20040;-72
2022/07/28 03:44:44;;;;;;;3.50;1.20;;;11.20;99.90;;;;;;5074622;28;20569;-72
2022/07/28 03:47:10;;;;;;;1.70;1.00;;;11.20;99.90;;;;;;5057830;28;20125;-72
2022/07/28 03:49:36;;;;;;;3.42;0.95;;;11.10;99.90;;;;;;5074532;28;20072;-72
2022/07/28 03:52:01;;;;;;;1.70;0.90;;;11.10;99.90;;;;;;5074479;28;20094;-72
2022/07/28 03:54:27;;;;;;;2.63;1.20;;;11.10;99.90;;;;;;5074387;28;20044;-72
2022/07/28 03:56:53;;;;;;;3.25;0.93;;;11.10;99.90;;;;;;5074387;28;20044;-72
2022/07/28 03:59:19;;;;;;;3.33;1.08;;;11.10;99.90;;;;;;5074333;28;20447;-72
2022/07/28 04:01:45;;;;;;;2.65;0.90;;;11.10;99.90;;;;;;5074291;28;20037;-72
2022/07/28 04:04:10;;;;;;;3.88;1.15;;;11.10;99.90;;;;;;5074190;28;20116;-72
2022/07/28 04:06:36;;;;;;;2.78;1.00;;;11.10;99.90;;;;;;5074216;28;20044;-72
2022/07/28 04:09:01;;;;;;;2.40;1.02;;;11.00;99.90;;;;;;5074146;28;20051;-72
2022/07/28 04:11:27;;;;;;;2.65;1.10;;;11.00;99.90;;;;;;5057489;28;20076;-72
2022/07/28 04:13:54;;;;;;;1.83;1.00;;;11.00;99.90;;;;;;5074007;28;20165;-72
2022/07/28 04:16:20;;;;;;;2.17;1.20;;;11.00;99.90;;;;;;5073968;28;20130;-72
2022/07/28 04:18:46;;;;;;;2.42;1.00;;;11.00;99.90;;;;;;5074012;28;20048;-72
2022/07/28 04:21:12;;;;;;;2.83;1.10;;;11.00;99.90;;;;;;5073883;28;20493;-72
2022/07/28 04:23:38;;;;;;;4.40;1.02;;;11.10;99.90;;;;;;5074115;28;20039;-72
2022/07/28 04:26:03;;;;;;;1.92;1.17;;;11.10;99.90;;;;;;5073808;28;20413;-72
2022/07/28 04:28:29;;;;;;;2.53;1.08;;;11.10;99.90;;;;;;5073770;28;20051;-72
2022/07/28 04:30:54;;;;;;;3.70;1.10;;;11.10;99.90;;;;;;5073744;28;20045;-72
2022/07/28 04:33:20;;;;;;;2.97;1.30;;;11.10;99.90;;;;;;5073729;28;20127;-72
2022/07/28 04:35:46;;;;;;;2.60;1.20;;;11.10;99.90;;;;;;5073508;28;20041;-72
2022/07/28 04:38:13;;;;;;;2.10;1.17;;;11.10;99.90;;;;;;5073834;28;20041;-72
2022/07/28 04:40:41;;;;;;;3.85;1.23;;;11.20;99.90;;;;;;5057661;28;20039;-72
2022/07/28 04:43:07;;;;;;;3.40;1.38;;;11.20;99.90;;;;;;5073777;28;20083;-72
2022/07/28 04:45:32;;;;;;;3.22;1.45;;;11.20;99.90;;;;;;5073376;28;20080;-72
2022/07/28 04:47:58;;;;;;;2.55;1.23;;;11.20;99.90;;;;;;5073285;28;20101;-72
2022/07/28 04:50:24;;;;;;;3.17;1.42;;;11.20;99.90;;;;;;5073221;28;20052;-72
2022/07/28 04:52:49;;;;;;;3.83;1.60;;;11.20;99.90;;;;;;5073256;28;20045;-72
2022/07/28 04:55:16;;;;;;;5.05;1.70;;;11.20;99.90;;;;;;5073058;28;20041;-72
2022/07/28 04:57:42;;;;;;;4.55;1.80;;;11.20;99.90;;;;;;5073151;28;20455;-72
2022/07/28 05:00:11;;;;;;;2.42;1.50;;;11.20;99.90;;;;;;5073124;28;20044;-72
2022/07/28 05:02:37;;;;;;;5.40;1.95;;;11.20;99.90;;;;;;5073074;28;20564;-72
2022/07/28 05:05:03;;;;;;;4.10;1.58;;;11.20;99.90;;;;;;5072949;28;20119;-72
2022/07/28 05:07:29;;;;;;;3.30;1.55;;;11.20;99.90;;;;;;5073270;28;20144;-72
2022/07/28 05:09:54;;;;;;;3.78;1.55;;;11.30;99.90;;;;;;5073004;28;20478;-72
2022/07/28 05:12:20;;;;;;;3.58;1.45;;;11.30;99.90;;;;;;5072922;28;20037;-72
2022/07/28 05:14:45;;;;;;;3.42;1.60;;;11.30;99.90;;;;;;5072740;28;20040;-72
2022/07/28 05:17:11;;;;;;;2.65;1.63;;;11.40;99.90;;;;;;5072729;28;20141;-72
2022/07/28 05:19:37;;;;;;;4.85;1.67;;;11.40;99.90;;;;;;5056254;28;20119;-72
2022/07/28 05:22:03;;;;;;;4.80;1.70;;;11.50;99.90;;;;;;5072706;28;20562;-72
2022/07/28 05:24:28;;;;;;;5.88;1.70;;;11.50;99.90;;;;;;5072621;28;20090;-72
2022/07/28 05:26:54;;;;;;;4.72;1.92;;;11.60;99.90;;;;;;5072703;28;20045;-72
2022/07/28 05:29:19;;;;;;;2.95;1.50;;;11.70;99.90;;;;;;5072604;28;20045;-72
2022/07/28 05:31:45;;;;;;;4.15;2.05;;;11.80;99.90;;;;;;5072532;28;20124;-71
2022/07/28 05:34:11;;;;;;;3.25;1.75;;;11.80;99.90;;;;;;5072655;28;20044;-71
2022/07/28 05:36:36;;;;;;;4.18;1.80;;;12.00;99.90;;;;;;5072350;28;20567;-71
2022/07/28 05:39:02;;;;;;;4.85;1.60;;;12.10;99.90;;;;;;5072417;28;20124;-71
2022/07/28 05:41:28;;;;;;;5.35;1.50;;;12.20;99.90;;;;;;5072830;28;20082;-71
2022/07/28 05:43:53;;;;;;;5.13;2.42;;;12.30;99.90;;;;;;5072247;28;20451;-71
2022/07/28 05:46:19;;;;;;;4.97;1.70;;;12.50;99.90;;;;;;5072443;28;20040;-71
2022/07/28 05:48:45;;;;;;;3.83;1.55;;;12.60;99.90;;;;;;5072231;28;20098;-71
2022/07/28 05:51:10;;;;;;;6.18;1.70;;;12.70;99.90;;;;;;5072194;28;20045;-71
2022/07/28 05:53:36;;;;;;;6.40;1.88;;;12.80;99.90;;;;;;5072200;28;20052;-71
2022/07/28 05:56:02;;;;;;;4.00;1.65;;;12.90;99.90;;;;;;5072949;28;20037;-71
2022/07/28 05:58:29;;;;;;;3.72;1.80;;;13.00;99.90;;;;;;5072110;28;20409;-71
2022/07/28 06:00:58;;;;;;;5.30;1.90;;;13.10;99.90;;;;;;5072740;28;20067;-71
2022/07/28 06:03:23;;;;;;;5.63;1.92;;;13.20;99.90;;;;;;5072099;28;20040;-71
2022/07/28 06:05:50;;;;;;;4.35;2.40;;;13.30;99.90;;;;;;5071938;28;20044;-71
2022/07/28 06:08:15;;;;;;;5.18;1.77;;;13.40;99.90;;;;;;5072009;28;20047;-71
2022/07/28 06:11:00;;;;;;;5.57;1.73;;;13.40;99.90;;;;;;5072070;28;20040;-72
2022/07/28 06:13:28;;;;;;;5.10;1.70;;;13.50;99.90;;;;;;5071985;28;20044;-72
2022/07/28 06:15:53;;;;;;;4.10;1.90;;;13.60;99.90;;;;;;5071838;28;20131;-72
2022/07/28 06:18:20;;;;;;;7.95;2.17;;;13.70;99.90;;;;;;5071931;28;20132;-72
2022/07/28 06:20:47;;;;;;;4.40;1.70;;;13.80;99.90;;;;;;5055353;28;20181;-72
2022/07/28 06:23:17;;;;;;;4.13;1.83;;;14.00;99.90;;;;;;5072101;28;20040;-72
2022/07/28 06:25:42;;;;;;;4.43;1.77;;;14.20;99.90;;;;;;5055049;28;20040;-72
2022/07/28 06:28:08;;;;;;;4.20;1.58;;;14.30;99.90;;;;;;5071761;28;20047;-72
2022/07/28 06:30:33;;;;;;;5.45;1.40;;;14.40;99.90;;;;;;5071760;28;20040;-71
2022/07/28 06:32:59;;;;;;;5.20;1.73;;;14.60;99.90;;;;;;5071860;28;20040;-71
2022/07/28 06:35:25;;;;;;;4.22;1.45;;;14.70;99.90;;;;;;5071668;28;20048;-72
2022/07/28 06:37:51;;;;;;;7.40;1.63;;;14.80;99.90;;;;;;5071739;28;20037;-71
2022/07/28 06:40:19;;;;;;;8.40;1.10;;;14.90;99.90;;;;;;5071922;28;20123;-71
2022/07/28 06:42:45;;;;;;;8.95;1.48;;;15.00;99.90;;;;;;5071623;28;20041;-71
2022/07/28 06:45:13;;;;;;;6.55;1.10;;;15.10;99.90;;;;;;5071591;28;20041;-71
2022/07/28 06:47:38;;;;;;;3.75;1.15;;;15.30;99.90;;;;;;5071591;28;20044;-71
2022/07/28 06:50:05;;;;;;;4.03;1.02;;;15.40;99.90;;;;;;5071558;28;20086;-71
2022/07/28 06:52:32;;;;;;;4.20;1.15;;;15.60;99.90;;;;;;5071777;28;20071;-71
2022/07/28 06:54:59;;;;;;;3.30;0.95;;;15.70;99.90;;;;;;5071473;28;20075;-72
2022/07/28 06:57:26;;;;;;;5.28;0.80;;;15.80;99.90;;;;;;5071499;28;20539;-72
2022/07/28 06:59:52;;;;;;;2.90;0.80;;;15.90;99.90;;;;;;5071504;28;20052;-72
2022/07/28 07:02:18;;;;;;;9.57;1.40;;;15.90;99.90;;;;;;5071743;28;20485;-72
2022/07/28 07:04:44;;;;;;;7.18;1.40;;;16.10;99.90;;;;;;5071386;28;20039;-72
2022/07/28 07:07:09;;;;;;;4.53;0.80;;;16.20;99.90;;;;;;5071402;28;20493;-71
2022/07/28 07:09:36;;;;;;;4.72;1.02;;;16.30;99.90;;;;;;5071375;28;20055;-70
2022/07/28 07:12:02;;;;;;;8.85;1.10;;;16.30;99.90;;;;;;5072865;28;20447;-70
2022/07/28 07:14:28;;;;;;;5.22;0.90;;;16.40;99.90;;;;;;5075389;28;20045;-71
2022/07/28 07:16:53;;;;;;;5.30;0.88;;;16.60;99.90;;;;;;5075124;28;20238;-71
2022/07/28 07:19:20;;;;;;;4.40;0.95;;;16.60;99.90;;;;;;5075026;28;20404;-71
2022/07/28 07:21:46;;;;;;;4.55;0.82;;;16.80;99.90;;;;;;5075092;28;20043;-71
2022/07/28 07:24:12;;;;;;;5.05;0.77;;;16.90;99.90;;;;;;5075016;28;20048;-71
2022/07/28 07:26:38;;;;;;;2.33;0.60;;;17.00;99.90;;;;;;5076277;28;20044;-71
2022/07/28 07:29:05;;;;;;;2.75;0.70;;;17.10;99.90;;;;;;5074987;28;20128;-71
2022/07/28 07:31:35;;;;;;;6.07;1.30;;;17.20;99.90;;;;;;5058509;28;20072;-71
2022/07/28 07:34:01;;;;;;;5.07;1.02;;;17.30;99.90;;;;;;5074825;28;20040;-71
2022/07/28 07:36:26;;;;;;;2.03;0.60;;;17.30;99.90;;;;;;5074890;28;20040;-71
2022/07/28 07:38:52;;;;;;;4.25;0.93;;;17.40;99.90;;;;;;5074783;28;20501;-71
2022/07/28 07:41:18;;;;;;;6.05;0.80;;;17.40;99.90;;;;;;5074777;28;20132;-71
2022/07/28 07:43:45;;;;;;;4.45;0.70;;;17.40;99.90;;;;;;5074735;28;20036;-70
2022/07/28 07:46:10;;;;;;;4.13;0.70;;;17.40;99.90;;;;;;5074541;28;20044;-70
2022/07/28 07:48:36;;;;;;;2.58;0.70;;;17.40;99.90;;;;;;5074894;28;20056;-70
2022/07/28 07:51:02;;;;;;;5.13;0.93;;;17.40;99.90;;;;;;5074837;28;20378;-70
2022/07/28 07:53:27;;;;;;;2.15;0.57;;;17.40;99.90;;;;;;5074516;28;20519;-70
2022/07/28 07:55:53;;;;;;;4.47;1.08;;;17.50;99.90;;;;;;5058531;28;20047;-70
2022/07/28 07:58:18;;;;;;;3.08;0.80;;;17.50;99.90;;;;;;5074494;28;20040;-70
2022/07/28 08:00:44;;;;;;;6.32;1.00;;;17.60;99.90;;;;;;5074410;28;20040;-70
2022/07/28 08:03:09;;;;;;;6.05;1.00;;;17.70;99.90;;;;;;5075629;28;20036;-69
2022/07/28 08:05:35;;;;;;;4.90;0.80;;;17.80;99.90;;;;;;5074528;28;20397;-70
2022/07/28 08:08:01;;;;;;;4.57;0.70;;;17.90;99.90;;;;;;5074301;28;20045;-70
2022/07/28 08:10:26;;;;;;;5.95;1.00;;;18.00;99.90;;;;;;5074514;28;20053;-70
2022/07/28 08:12:52;;;;;;;5.55;1.10;;;18.10;99.90;;;;;;5075472;28;20404;-70
2022/07/28 08:15:17;;;;;;;3.63;0.82;;;18.20;99.90;;;;;;5074008;28;20044;-70
2022/07/28 08:17:43;;;;;;;4.88;0.90;;;18.30;99.90;;;;;;5074054;28;20044;-70
2022/07/28 08:20:09;;;;;;;3.95;0.60;;;18.30;99.90;;;;;;5073919;28;20101;-70
2022/07/28 08:22:49;;;;;;;4.45;0.88;;;18.40;99.90;;;;;;5073975;28;20047;-70
2022/07/28 08:25:15;;;;;;;3.13;0.75;;;18.50;99.90;;;;;;5073582;28;20079;-70
2022/07/28 08:27:41;;;;;;;2.85;0.47;;;18.60;99.90;;;;;;5073879;28;20048;-70
2022/07/28 08:30:08;;;;;;;4.32;0.90;;;18.70;99.90;;;;;;5074098;28;20032;-70
2022/07/28 08:32:33;;;;;;;6.72;0.80;;;18.80;99.90;;;;;;5074051;28;20054;-70
2022/07/28 08:34:59;;;;;;;2.22;0.65;;;18.80;99.90;;;;;;5073675;28;20036;-70
2022/07/28 08:37:24;;;;;;;6.45;0.82;;;18.90;99.90;;;;;;5073580;28;20501;-70
2022/07/28 08:39:50;;;;;;;4.00;0.60;;;18.90;99.90;;;;;;5074507;28;20113;-70
2022/07/28 08:42:51;;;;;;;4.22;0.63;;;18.90;99.90;;;;;;5073625;28;20044;-70
2022/07/28 08:45:17;;;;;;;4.20;0.80;;;18.90;99.90;;;;;;5036201;28;20048;-70
2022/07/28 08:47:44;;;;;;;6.20;0.88;;;18.90;99.90;;;;;;5036209;28;20053;-70
2022/07/28 08:50:12;;;;;;;3.33;0.85;;;18.90;99.90;;;;;;5035924;28;20175;-70
2022/07/28 08:52:38;;;;;;;5.15;1.00;;;19.00;99.90;;;;;;5035891;28;20124;-70
2022/07/28 08:55:07;;;;;;;8.02;0.98;;;19.00;99.90;;;;;;5035863;28;20566;-70
2022/07/28 08:57:40;;;;;;;6.22;0.90;;;19.00;99.90;;;;;;5035700;28;20122;-70
2022/07/28 09:00:11;;;;;;;3.72;0.70;;;19.10;99.90;;;;;;5036043;28;20045;-70
2022/07/28 09:02:41;;;;;;;6.40;0.85;;;19.20;99.90;;;;;;5036250;28;20045;-70
2022/07/28 09:05:08;;;;;;;3.53;0.80;;;19.50;99.90;;;;;;5019079;28;20044;-70
2022/07/28 09:07:36;;;;;;;6.25;1.52;;;19.60;99.90;;;;;;5035610;28;20085;-70
2022/07/28 09:10:04;;;;;;;2.97;0.70;;;19.70;99.90;;;;;;5035594;28;20051;-70
2022/07/28 09:12:33;;;;;;;4.15;1.00;;;19.80;99.90;;;;;;5035894;28;20052;-70
2022/07/28 09:15:03;;;;;;;3.03;0.70;;;19.90;99.90;;;;;;5035755;28;20425;-70
2022/07/28 09:17:28;;;;;;;5.90;1.17;;;19.80;99.90;;;;;;5036170;28;20041;-70
2022/07/28 09:19:54;;;;;;;2.92;0.70;;;19.90;99.90;;;;;;5021648;28;20059;-70
2022/07/28 09:22:20;;;;;;;3.75;0.88;;;20.00;99.90;;;;;;5056406;28;20033;-70
2022/07/28 09:24:46;;;;;;;5.40;1.05;;;20.00;99.40;;;;;;5072935;28;20028;-70
2022/07/28 09:27:13;;;;;;;5.00;0.88;;;20.10;99.70;;;;;;5072591;28;20036;-70
2022/07/28 09:29:43;;;;;;;4.70;1.10;;;20.10;99.40;;;;;;5072648;28;20493;-70
2022/07/28 09:32:08;;;;;;;8.35;0.95;;;20.20;98.50;;;;;;5072883;28;20083;-70
2022/07/28 09:34:45;;;;;;;4.13;0.90;;;20.40;99.60;;;;;;5072125;28;20056;-70
2022/07/28 09:37:22;;;;;;;3.42;0.80;;;20.60;98.30;;;;;;5072131;28;20044;-70
2022/07/28 09:39:49;;;;;;;3.17;0.93;;;20.80;95.80;;;;;;5072739;28;20048;-70
2022/07/28 09:42:17;;;;;;;3.95;0.90;;;20.90;96.60;;;;;;5072345;28;20512;-70
2022/07/28 09:44:43;;;;;;;5.00;0.70;;;20.90;95.70;;;;;;5072169;28;20049;-70
2022/07/28 09:47:22;;;;;;;4.28;1.08;;;20.90;95.10;;;;;;5072567;28;20076;-70
2022/07/28 09:49:49;;;;;;;4.57;1.00;;;21.00;94.70;;;;;;5072298;28;20044;-70
2022/07/28 09:52:35;;;;;;;6.63;1.00;;;21.10;94.10;;;;;;5072195;28;20040;-70
2022/07/28 09:55:01;;;;;;;5.20;1.00;;;21.00;90.60;;;;;;5072408;28;20115;-70
2022/07/28 09:57:27;;;;;;;2.35;0.80;;;21.00;93.30;;;;;;5072143;28;20578;-70
2022/07/28 09:59:53;;;;;;;3.80;1.15;;;21.10;93.50;;;;;;5072101;28;20401;-70
2022/07/28 10:02:33;;;;;;;5.03;0.90;;;21.10;92.30;;;;;;5072068;28;20040;-70
2022/07/28 10:04:59;;;;;;;3.35;0.90;;;20.90;92.40;;;;;;5072055;28;20044;-70
2022/07/28 10:07:30;;;;;;;5.30;0.95;;;20.70;93.50;;;;;;5072033;28;20040;-70
2022/07/28 10:10:07;;;;;;;2.85;1.08;;;20.60;94.20;;;;;;5055313;28;20413;-70
2022/07/28 10:12:35;;;;;;;2.90;0.82;;;20.50;93.70;;;;;;5072280;28;20036;-70
2022/07/28 10:18:05;;;;;;;3.72;1.00;;;20.30;93.90;;;;;;5072033;28;20048;-70
2022/07/28 10:20:32;;;;;;;4.13;0.82;;;20.20;95.50;;;;;;5071748;28;20040;-70
2022/07/28 10:23:03;;;;;;;5.90;1.00;;;20.20;96.00;;;;;;5071864;28;20038;-70
2022/07/28 10:25:33;;;;;;;5.95;0.88;;;20.20;94.50;;;;;;5055083;28;20070;-71
2022/07/28 10:28:00;;;;;;;3.95;0.80;;;20.10;94.80;;;;;;5072063;28;20089;-70
2022/07/28 10:30:27;;;;;;;3.33;0.75;;;20.20;94.90;;;;;;5055102;28;20124;-70
2022/07/28 10:32:55;;;;;;;5.22;1.00;;;20.20;93.80;;;;;;5072096;28;20054;-70
2022/07/28 10:35:24;;;;;;;4.80;0.98;;;20.10;93.70;;;;;;5071858;28;20044;-70
2022/07/28 10:37:59;;;;;;;4.57;0.98;;;20.10;93.50;;;;;;5071717;28;20075;-70
2022/07/28 10:40:28;;;;;;;3.42;0.80;;;20.20;94.40;;;;;;5071670;28;20093;-70
2022/07/28 10:42:55;;;;;;;3.38;0.70;;;20.20;94.50;;;;;;5071912;28;20040;-70
2022/07/28 10:45:21;;;;;;;3.15;0.90;;;20.20;94.70;;;;;;5071564;28;20062;-70
2022/07/28 10:47:47;;;;;;;6.22;1.27;;;20.20;93.00;;;;;;5074491;28;20033;-70
2022/07/28 10:50:14;;;;;;;2.55;0.82;;;20.20;92.80;;;;;;5075680;28;20040;-70
2022/07/28 10:52:41;;;;;;;3.80;0.73;;;20.30;93.50;;;;;;5075958;28;20493;-69
2022/07/28 10:55:15;;;;;;;5.63;0.90;;;20.40;93.40;;;;;;5076522;28;20037;-70
2022/07/28 10:57:55;;;;;;;4.40;0.90;;;20.50;93.80;;;;;;5076810;28;20072;-70
2022/07/28 11:00:24;;;;;;;4.20;0.80;;;20.80;93.20;;;;;;5075585;28;20123;-70
2022/07/28 11:02:59;;;;;;;6.00;1.08;;;21.00;93.10;;;;;;5075532;28;20036;-70
2022/07/28 11:05:39;;;;;;;5.30;0.70;;;21.10;89.40;;;;;;5075438;28;20040;-71
2022/07/28 11:08:14;;;;;;;3.08;0.73;;;21.30;89.40;;;;;;5075390;28;20097;-70
2022/07/28 11:10:50;;;;;;;6.00;1.00;;;21.50;86.20;;;;;;5075338;28;20048;-70
2022/07/28 11:13:22;;;;;;;4.50;1.02;;;21.80;88.70;;;;;;5075515;28;20394;-70
2022/07/28 11:15:48;;;;;;;6.03;1.05;;;22.00;86.90;;;;;;5075123;28;20051;-70
2022/07/28 11:18:13;;;;;;;2.83;0.80;;;22.10;82.20;;;;;;5075241;28;20028;-70
2022/07/28 11:21:03;;;;;;;3.50;0.88;;;22.30;81.10;;;;;;5075030;28;20036;-70
2022/07/28 11:23:39;;;;;;;5.20;0.85;;;22.40;79.60;;;;;;5075153;28;20135;-70
2022/07/28 11:26:35;;;;;;;5.68;0.88;;;22.20;77.20;;;;;;5074982;28;20040;-71
2022/07/28 11:29:13;;;;;;;5.35;0.80;;;22.00;77.60;;;;;;5074992;28;20046;-71
2022/07/28 11:31:45;;;;;;;2.42;0.60;;;21.80;78.40;;;;;;5075003;28;20072;-71
2022/07/28 11:34:11;;;;;;;2.22;0.75;;;21.70;78.50;;;;;;5074833;28;20056;-70
2022/07/28 11:37:01;;;;;;;4.05;0.70;;;21.50;80.40;;;;;;5074832;28;20087;-70
2022/07/28 11:39:31;;;;;;;2.95;0.50;;;21.70;81.80;;;;;;5075086;28;20044;-70
2022/07/28 11:41:58;;;;;;;6.78;0.90;;;21.80;79.20;;;;;;5074708;28;20455;-70
2022/07/28 11:44:27;;;;;;;3.85;0.47;;;21.80;75.90;;;;;;5058253;28;20111;-70
2022/07/28 11:47:14;;;;;;;3.33;0.50;;;21.80;75.60;;;;;;5074649;28;20036;-70
2022/07/28 11:49:39;;;;;;;3.38;0.82;;;21.90;74.10;;;;;;5074701;28;20052;-69
2022/07/28 11:52:10;;;;;;;3.63;0.93;;;22.20;76.10;;;;;;5075834;28;20032;-69
2022/07/28 11:54:37;;;;;;;2.85;0.82;;;22.60;73.70;;;;;;5058104;28;20477;-70
2022/07/28 11:57:03;;;;;;;2.72;0.55;;;22.80;71.10;;;;;;5074443;28;20072;-71
2022/07/28 11:59:42;;;;;;;3.08;0.77;;;22.80;69.70;;;;;;5073418;28;20049;-70
2022/07/28 12:02:08;;;;;;;1.85;0.57;;;22.60;66.70;;;;;;5074383;28;20036;-70
2022/07/28 12:04:33;;;;;;;2.80;0.70;;;22.50;67.60;;;;;;5074261;28;20093;-70
2022/07/28 12:07:00;;;;;;;3.65;0.55;;;22.40;68.00;;;;;;5074208;28;20111;-70
2022/07/28 12:09:32;;;;;;;4.18;0.60;;;22.50;70.00;;;;;;5074499;28;20044;-70
2022/07/28 12:11:58;;;;;;;4.35;0.98;;;22.60;70.90;;;;;;5074237;28;20052;-70
2022/07/28 12:14:27;;;;;;;2.28;0.70;;;22.60;69.00;;;;;;5074100;28;20048;-70
2022/07/28 12:16:53;;;;;;;2.70;0.80;;;22.50;66.10;;;;;;5073991;28;20040;-70
2022/07/28 12:19:19;;;;;;;2.15;0.38;;;22.50;66.40;;;;;;5073997;28;20040;-71
2022/07/28 12:21:50;;;;;;;3.78;0.80;;;22.60;67.10;;;;;;5074290;28;20059;-71
2022/07/28 12:24:24;;;;;;;3.80;0.60;;;22.70;67.20;;;;;;5057164;28;20409;-71
2022/07/28 12:26:50;;;;;;;2.28;0.60;;;23.00;67.40;;;;;;5073942;28;20497;-70
2022/07/28 12:29:16;;;;;;;3.42;0.68;;;23.40;67.10;;;;;;5074149;28;20051;-70
2022/07/28 12:31:57;;;;;;;1.90;0.50;;;23.80;66.00;;;;;;5074122;28;20501;-69
2022/07/28 12:34:24;;;;;;;4.20;0.88;;;24.10;60.40;;;;;;5075509;28;20060;-70
2022/07/28 12:36:51;;;;;;;3.33;1.00;;;24.00;59.50;;;;;;5074852;28;20052;-70
2022/07/28 12:39:18;;;;;;;2.60;0.63;;;23.90;57.90;;;;;;5073672;28;20045;-70
2022/07/28 12:41:44;;;;;;;3.58;0.50;;;23.80;58.10;;;;;;5056946;28;20037;-70
2022/07/28 12:44:10;;;;;;;3.45;0.70;;;23.70;58.20;;;;;;5073509;28;20036;-70
2022/07/28 12:46:36;;;;;;;4.00;0.60;;;23.60;59.50;;;;;;5073549;28;20080;-70
2022/07/28 12:49:02;;;;;;;5.38;0.80;;;23.50;60.10;;;;;;5073476;28;20040;-70
2022/07/28 12:51:36;;;;;;;3.13;0.70;;;23.40;60.10;;;;;;5073489;28;20033;-70
2022/07/28 12:54:06;;;;;;;2.15;0.57;;;23.10;60.80;;;;;;5073338;28;20097;-69
2022/07/28 12:56:50;;;;;;;2.95;0.68;;;23.00;61.40;;;;;;5073462;28;20053;-69
2022/07/28 12:59:18;;;;;;;3.30;0.82;;;22.80;60.60;;;;;;5073380;28;20045;-70